Cottonwood, Minnesota
Current Conditions -  °F | °C
As of 6:52 PM on Monday 26 Jan 2015 (Local Time) from KGDB Reporting Station
Overcast Overcast  
Wind Chill: 29°   Ceiling: 2600
Heat Index: 37°   Visibility: 10mi
Dew Point: 32°   Wind: 10mph
Humidity: 84%   Direction: 290°WNW
Pressure: 29.97"   Gusts: NA
Location:  44.61°N, 95.67°W
Report Text: KGDB 270052Z AUTO 29009KT 10SM OVC026 03/00 A2997 RMK AO2 T00260001
Loading
Personal Weather Stations






























Interactive Weather Map New forecast layout! Learn more

10-Day Weather Forecast

Advertisements
Track Severe Weather on mobile